createdAt,value
2023-01-22T00:00:58.601Z,78.2
2023-01-22T00:02:15.690Z,78.5
2023-01-22T00:03:32.695Z,78.8
2023-01-22T00:04:49.710Z,79
2023-01-22T00:06:06.620Z,79.5
2023-01-22T00:07:23.622Z,80
2023-01-22T00:08:40.657Z,80.6
2023-01-22T00:09:57.612Z,81
2023-01-22T00:11:14.662Z,81.2
2023-01-22T00:12:31.642Z,81.5
2023-01-22T00:13:48.719Z,81.7
2023-01-22T00:15:05.619Z,81.3
2023-01-22T00:16:22.638Z,81.1
2023-01-22T00:17:39.601Z,80.5
2023-01-22T00:18:57.826Z,80.1
2023-01-22T00:20:14.670Z,79.9
2023-01-22T00:21:31.669Z,79.4
2023-01-22T00:22:48.632Z,79.2
2023-01-22T00:24:05.637Z,79.2
2023-01-22T00:25:22.689Z,79.3
2023-01-22T00:26:39.674Z,79.3
2023-01-22T00:27:56.660Z,79.2
2023-01-22T00:29:13.643Z,79.3
2023-01-22T00:30:30.709Z,79.2
2023-01-22T00:31:47.727Z,78.9
2023-01-22T00:33:04.625Z,78.4
2023-01-22T00:34:21.681Z,78.4
2023-01-22T00:35:38.704Z,78.6
2023-01-22T00:36:56.190Z,78.8
2023-01-22T00:38:12.665Z,79.1
2023-01-22T00:39:29.648Z,79.4
2023-01-22T00:40:46.664Z,79.5
2023-01-22T00:42:03.681Z,79.6
2023-01-22T00:43:20.673Z,79.7
2023-01-22T00:44:37.647Z,79.6
2023-01-22T00:45:54.671Z,79.6
2023-01-22T00:47:11.715Z,79.2
2023-01-22T00:48:28.713Z,78.7
2023-01-22T00:49:45.671Z,78.1
2023-01-22T00:51:03.549Z,77.8
2023-01-22T00:52:20.727Z,77.5
2023-01-22T00:53:37.867Z,77.4
2023-01-22T00:54:54.845Z,77.1
2023-01-22T00:56:11.707Z,76.9
2023-01-22T00:57:28.710Z,77.3
2023-01-22T00:58:45.675Z,77.7
2023-01-22T01:00:02.771Z,78.3
2023-01-22T01:01:19.720Z,78.8
2023-01-22T01:02:36.680Z,79.1
2023-01-22T01:03:53.827Z,79.4
2023-01-22T01:05:10.740Z,79.9
2023-01-22T01:06:27.679Z,80
2023-01-22T01:07:44.688Z,80.1
2023-01-22T01:09:01.693Z,80.2
2023-01-22T01:10:18.987Z,79.8
2023-01-22T01:11:35.776Z,79.5
2023-01-22T01:12:52.857Z,79.3
2023-01-22T01:14:09.687Z,78.9
2023-01-22T01:15:26.700Z,78.8
2023-01-22T01:16:43.730Z,78.6
2023-01-22T01:18:00.734Z,78.2
2023-01-22T01:19:18.067Z,78
2023-01-22T01:20:34.809Z,77.6
2023-01-22T01:21:51.755Z,77.4
2023-01-22T01:23:08.694Z,77.1
2023-01-22T01:24:25.880Z,76.7
2023-01-22T01:25:42.729Z,76.6
2023-01-22T01:26:59.785Z,76.2
2023-01-22T01:28:16.846Z,76.3
2023-01-22T01:29:33.727Z,76.3
2023-01-22T01:30:50.763Z,76.4
2023-01-22T01:32:07.725Z,76.2
2023-01-22T01:33:24.740Z,76
2023-01-22T01:34:41.712Z,76.1
2023-01-22T01:35:58.765Z,76
2023-01-22T01:37:15.810Z,76
2023-01-22T01:38:32.723Z,76.1
2023-01-22T01:39:49.754Z,76.1
2023-01-22T01:41:06.769Z,75.8
2023-01-22T01:42:23.722Z,75.7
2023-01-22T01:43:40.845Z,75.5
2023-01-22T01:44:57.774Z,75.4
2023-01-22T01:46:14.806Z,75.2
2023-01-22T01:47:31.745Z,75.4
2023-01-22T01:48:48.717Z,75.5
2023-01-22T01:50:05.761Z,75.6
2023-01-22T01:51:22.803Z,76.4
2023-01-22T01:52:39.771Z,77.2
2023-01-22T01:53:56.751Z,77.8
2023-01-22T01:55:13.746Z,78.3
2023-01-22T01:56:30.745Z,78.8
2023-01-22T01:57:47.839Z,79.3
2023-01-22T01:59:04.853Z,79.3
2023-01-22T02:00:21.788Z,79.3
2023-01-22T02:01:38.793Z,79.3
2023-01-22T02:02:55.774Z,79.1
2023-01-22T02:04:12.785Z,78.8
2023-01-22T02:05:29.757Z,78.5
2023-01-22T02:06:46.816Z,78.2
2023-01-22T02:08:03.818Z,78.4
2023-01-22T02:09:20.765Z,78
2023-01-22T02:10:37.876Z,77.5
2023-01-22T02:11:54.798Z,77.2
2023-01-22T02:13:11.836Z,76.9
2023-01-22T02:14:28.918Z,76.9
2023-01-22T02:15:45.767Z,76.9
2023-01-22T02:17:02.792Z,76.9
2023-01-22T02:18:19.841Z,76.8
2023-01-22T02:19:36.804Z,76.8
2023-01-22T02:20:53.781Z,76.4
2023-01-22T02:22:10.840Z,76
2023-01-22T02:23:27.806Z,75.7
2023-01-22T02:24:44.810Z,75.4
2023-01-22T02:26:01.867Z,75.3
2023-01-22T02:27:18.782Z,75.2
2023-01-22T02:28:35.850Z,75.2
2023-01-22T02:29:52.902Z,75.1
2023-01-22T02:31:09.962Z,74.9
2023-01-22T02:32:26.788Z,74.8
2023-01-22T02:33:43.873Z,74.6
2023-01-22T02:35:01.090Z,74.5
2023-01-22T02:36:17.920Z,74.4
2023-01-22T02:37:34.794Z,74.5
2023-01-22T02:38:51.847Z,74.3
2023-01-22T02:40:08.824Z,74.4
2023-01-22T02:41:25.803Z,74.3
2023-01-22T02:42:42.800Z,74.2
2023-01-22T02:43:59.827Z,74.7
2023-01-22T02:45:16.939Z,75.7
2023-01-22T02:46:33.845Z,76.8
2023-01-22T02:47:51.085Z,77.5
2023-01-22T02:49:07.842Z,78
2023-01-22T02:50:24.845Z,78.2
2023-01-22T02:51:41.848Z,78.3
2023-01-22T02:52:58.828Z,77.9
2023-01-22T02:54:15.863Z,78
2023-01-22T02:55:32.877Z,77.5
2023-01-22T02:56:49.860Z,77
2023-01-22T02:58:06.823Z,76.7
2023-01-22T02:59:24.108Z,76.2
2023-01-22T03:00:41.051Z,75.9
2023-01-22T03:01:57.864Z,75.3
2023-01-22T03:03:14.836Z,75.1
2023-01-22T03:04:31.923Z,74.8
2023-01-22T03:05:48.879Z,74.5
2023-01-22T03:07:05.888Z,74.3
2023-01-22T03:08:22.822Z,74.3
2023-01-22T03:09:39.868Z,74.2
2023-01-22T03:10:56.846Z,73.9
2023-01-22T03:12:13.895Z,73.8
2023-01-22T03:13:30.858Z,73.5
2023-01-22T03:14:47.894Z,73.5
2023-01-22T03:16:05.016Z,73.5
2023-01-22T03:17:21.848Z,73.3
2023-01-22T03:18:38.863Z,73.2
2023-01-22T03:19:55.875Z,73.2
2023-01-22T03:21:12.870Z,73.2
2023-01-22T03:22:29.886Z,73.2
2023-01-22T03:23:46.869Z,73.3
2023-01-22T03:25:03.950Z,73.2
2023-01-22T03:26:20.901Z,73.2
2023-01-22T03:27:37.904Z,73
2023-01-22T03:28:54.880Z,72.9
2023-01-22T03:30:11.902Z,72.8
2023-01-22T03:31:29.295Z,72.7
2023-01-22T03:32:45.876Z,72.9
2023-01-22T03:34:02.924Z,72.9
2023-01-22T03:35:19.898Z,72.9
2023-01-22T03:36:36.974Z,73
2023-01-22T03:37:53.939Z,72.8
2023-01-22T03:39:10.866Z,72.7
2023-01-22T03:40:27.980Z,72.6
2023-01-22T03:41:44.900Z,72.6
2023-01-22T03:43:01.893Z,72.7
2023-01-22T03:44:18.868Z,72.9
2023-01-22T03:45:35.973Z,72.7
2023-01-22T03:46:53.029Z,72.8
2023-01-22T03:48:09.873Z,72.8
2023-01-22T03:49:26.909Z,72.8
2023-01-22T03:50:43.960Z,72.8
2023-01-22T03:52:00.915Z,73.3
2023-01-22T03:53:17.907Z,74
2023-01-22T03:54:34.894Z,74.5
2023-01-22T03:55:51.970Z,75.2
2023-01-22T03:57:08.916Z,76
2023-01-22T03:58:26.018Z,76.6
2023-01-22T03:59:42.933Z,77.2
2023-01-22T04:00:59.979Z,77.2
2023-01-22T04:02:17.085Z,76.9
2023-01-22T04:03:33.918Z,76.4
2023-01-22T04:04:50.980Z,75.9
2023-01-22T04:06:10.198Z,75.3
2023-01-22T04:07:26.937Z,75
2023-01-22T04:08:43.918Z,74.6
2023-01-22T04:10:00.948Z,74
2023-01-22T04:11:17.994Z,73.8
2023-01-22T04:12:34.943Z,73.4
2023-01-22T04:13:51.994Z,73.3
2023-01-22T04:15:08.939Z,73.1
2023-01-22T04:16:26.080Z,72.9
2023-01-22T04:17:43.057Z,73.2
2023-01-22T04:18:59.920Z,73.5
2023-01-22T04:20:17.283Z,73.8
2023-01-22T04:21:34.061Z,73.9
2023-01-22T04:22:51.027Z,74
2023-01-22T04:24:07.975Z,74.1
2023-01-22T04:25:24.950Z,74.3
2023-01-22T04:26:41.948Z,74.2
2023-01-22T04:27:58.985Z,73.9
2023-01-22T04:29:15.988Z,73.5
2023-01-22T04:30:33.105Z,73
2023-01-22T04:31:50.020Z,72.7
2023-01-22T04:33:07.109Z,72.5
2023-01-22T04:34:23.939Z,72.4
2023-01-22T04:35:40.980Z,72.5
2023-01-22T04:36:57.968Z,72.7
2023-01-22T04:38:14.959Z,72.8
2023-01-22T04:39:31.935Z,72.7
2023-01-22T04:40:48.982Z,72.6
2023-01-22T04:42:05.953Z,72.5
2023-01-22T04:43:22.947Z,72.3
2023-01-22T04:44:39.970Z,72.5
2023-01-22T04:45:57.069Z,72.5
2023-01-22T04:47:13.980Z,73.1
2023-01-22T04:48:31.134Z,73.8
2023-01-22T04:49:48.175Z,74.4
2023-01-22T04:51:05.037Z,74.8
2023-01-22T04:52:21.962Z,75.2
2023-01-22T04:53:39.000Z,75.4
2023-01-22T04:54:56.041Z,75.8
2023-01-22T04:56:12.997Z,75.4
2023-01-22T04:57:29.987Z,75
2023-01-22T04:58:46.989Z,74.7
2023-01-22T05:00:04.004Z,74.2
2023-01-22T05:01:21.059Z,74.1
2023-01-22T05:02:38.043Z,73.5
2023-01-22T05:03:55.165Z,72.9
2023-01-22T05:05:12.011Z,72.4
2023-01-22T05:06:29.155Z,72
2023-01-22T05:07:46.009Z,71.7
2023-01-22T05:09:03.017Z,71.4
2023-01-22T05:10:20.274Z,71.4
2023-01-22T05:11:37.022Z,71.3
2023-01-22T05:12:54.040Z,71.2
2023-01-22T05:14:11.005Z,71
2023-01-22T05:15:28.123Z,71
2023-01-22T05:16:45.058Z,71
2023-01-22T05:18:01.986Z,71.3
2023-01-22T05:19:19.124Z,71.3
2023-01-22T05:20:36.073Z,71.4
2023-01-22T05:21:53.047Z,71.6
2023-01-22T05:23:10.015Z,71.5
2023-01-22T05:24:27.017Z,71.5
2023-01-22T05:25:44.023Z,71.3
2023-01-22T05:27:01.033Z,71.2
2023-01-22T05:28:18.061Z,71
2023-01-22T05:29:35.076Z,71.1
2023-01-22T05:30:52.208Z,71
2023-01-22T05:32:09.091Z,71.3
2023-01-22T05:33:26.666Z,71.4
2023-01-22T05:34:44.139Z,71.4
2023-01-22T05:36:01.039Z,71.4
2023-01-22T05:37:18.049Z,71.4
2023-01-22T05:38:35.068Z,71.4
2023-01-22T05:39:52.050Z,71.3
2023-01-22T05:41:09.068Z,71.3
2023-01-22T05:42:26.062Z,71.3
2023-01-22T05:43:43.068Z,70.9
2023-01-22T05:45:00.047Z,70.5
2023-01-22T05:46:17.131Z,70
2023-01-22T05:47:34.041Z,69.6
2023-01-22T05:48:51.042Z,69.4
2023-01-22T05:50:08.177Z,69.9
2023-01-22T05:51:25.197Z,70.7
2023-01-22T05:52:42.038Z,71.2
2023-01-22T05:53:59.088Z,71.6
2023-01-22T05:55:16.097Z,71.9
2023-01-22T05:56:33.122Z,72.1
2023-01-22T05:57:50.135Z,72.4
2023-01-22T05:59:07.058Z,72.7
2023-01-22T06:00:24.097Z,72.8
2023-01-22T06:01:41.074Z,72.8
2023-01-22T06:02:58.220Z,73.1
2023-01-22T06:04:15.051Z,72.9
2023-01-22T06:05:32.260Z,72.6
2023-01-22T06:06:49.106Z,72.1
2023-01-22T06:08:06.068Z,71.4
2023-01-22T06:09:23.062Z,71.1
2023-01-22T06:10:40.090Z,70.8
2023-01-22T06:11:57.146Z,70.5
2023-01-22T06:13:14.053Z,70.1
2023-01-22T06:14:31.073Z,69.9
2023-01-22T06:15:48.151Z,69.7
2023-01-22T06:17:05.229Z,69.4
2023-01-22T06:18:22.131Z,69.4
2023-01-22T06:19:39.098Z,69.3
2023-01-22T06:20:56.781Z,69.3
2023-01-22T06:22:13.104Z,69.2
2023-01-22T06:23:30.077Z,69
2023-01-22T06:24:47.099Z,68.9
2023-01-22T06:26:04.142Z,68.9
2023-01-22T06:27:21.127Z,68.7
2023-01-22T06:28:38.128Z,68.5
2023-01-22T06:29:55.110Z,68.4
2023-01-22T06:31:12.188Z,68.6
2023-01-22T06:32:29.118Z,68.9
2023-01-22T06:33:46.090Z,69.1
2023-01-22T06:35:03.110Z,69.2
2023-01-22T06:36:20.246Z,69.4
2023-01-22T06:37:37.207Z,69.4
2023-01-22T06:38:54.217Z,69.4
2023-01-22T06:40:11.110Z,69.5
2023-01-22T06:41:28.136Z,69.6
2023-01-22T06:42:45.151Z,69.8
2023-01-22T06:44:02.229Z,70.2
2023-01-22T06:45:19.118Z,70.4
2023-01-22T06:46:36.192Z,70.7
2023-01-22T06:47:53.122Z,71.1
2023-01-22T06:49:10.162Z,71.6
2023-01-22T06:50:27.127Z,71.8
2023-01-22T06:51:44.322Z,72
2023-01-22T06:53:01.153Z,71.9
2023-01-22T06:54:18.149Z,72
2023-01-22T06:55:35.148Z,72.1
2023-01-22T06:56:52.149Z,72.1
2023-01-22T06:58:09.121Z,72.4
2023-01-22T06:59:26.143Z,72.5
2023-01-22T07:00:43.131Z,72.5
2023-01-22T07:02:00.227Z,72.8
2023-01-22T07:03:17.199Z,73.5
2023-01-22T07:04:34.157Z,74.3
2023-01-22T07:05:51.167Z,74.7
2023-01-22T07:07:08.279Z,75.6
2023-01-22T07:08:25.189Z,76.1
2023-01-22T07:09:42.163Z,76.5
2023-01-22T07:10:59.158Z,76.9
2023-01-22T07:12:16.160Z,77.1
2023-01-22T07:13:33.596Z,77.2
2023-01-22T07:14:50.166Z,77
2023-01-22T07:16:07.231Z,76.5
2023-01-22T07:17:24.278Z,76.1
2023-01-22T07:18:41.190Z,75.6
2023-01-22T07:19:58.156Z,75.1
2023-01-22T07:21:15.212Z,74.5
2023-01-22T07:22:32.322Z,74.2
2023-01-22T07:23:49.207Z,73.8
2023-01-22T07:25:06.199Z,73.4
2023-01-22T07:26:23.192Z,73.1
2023-01-22T07:27:40.328Z,72.8
2023-01-22T07:28:57.190Z,72.6
2023-01-22T07:30:14.190Z,72.5
2023-01-22T07:31:31.175Z,72.5
2023-01-22T07:32:48.255Z,72.3
2023-01-22T07:34:05.184Z,72
2023-01-22T07:35:22.192Z,71.8
2023-01-22T07:36:39.181Z,72
2023-01-22T07:37:56.314Z,72
2023-01-22T07:39:13.216Z,72
2023-01-22T07:40:30.314Z,71.9
2023-01-22T07:41:47.211Z,71.7
2023-01-22T07:43:04.257Z,71.5
2023-01-22T07:44:21.250Z,71.3
2023-01-22T07:45:38.209Z,71.1
2023-01-22T07:46:55.470Z,71
2023-01-22T07:48:12.219Z,71.1
2023-01-22T07:49:29.200Z,71
2023-01-22T07:50:46.254Z,71
2023-01-22T07:52:03.255Z,71
2023-01-22T07:53:20.363Z,71.2
2023-01-22T07:54:37.227Z,71.1
2023-01-22T07:55:54.203Z,71.2
2023-01-22T07:57:11.200Z,71.1
2023-01-22T07:58:28.479Z,70.9
2023-01-22T07:59:45.257Z,71
2023-01-22T08:01:02.293Z,70.9
2023-01-22T08:02:19.289Z,70.7
2023-01-22T08:03:36.307Z,70.7
2023-01-22T08:04:53.232Z,70.9
2023-01-22T08:06:10.249Z,70.8
2023-01-22T08:07:27.876Z,70.9
2023-01-22T08:08:44.376Z,71.6
2023-01-22T08:10:01.291Z,72.1
2023-01-22T08:11:18.250Z,72.5
2023-01-22T08:12:35.244Z,72.7
2023-01-22T08:13:52.276Z,73.3
2023-01-22T08:15:09.246Z,73.7
2023-01-22T08:16:26.306Z,74.1
2023-01-22T08:17:43.231Z,74.4
2023-01-22T08:19:00.279Z,74.6
2023-01-22T08:20:17.534Z,74.6
2023-01-22T08:21:34.289Z,74.8
2023-01-22T08:22:51.256Z,74.9
2023-01-22T08:24:08.397Z,74.7
2023-01-22T08:25:25.285Z,74.4
2023-01-22T08:26:42.259Z,73.6
2023-01-22T08:27:59.310Z,72.8
2023-01-22T08:29:16.239Z,72.4
2023-01-22T08:30:38.424Z,72
2023-01-22T08:31:50.344Z,71.3
2023-01-22T08:33:07.309Z,70.7
2023-01-22T08:34:24.270Z,70.1
2023-01-22T08:35:41.349Z,69.6
2023-01-22T08:36:58.268Z,69.3
2023-01-22T08:38:15.388Z,69.3
2023-01-22T08:39:32.437Z,69
2023-01-22T08:40:49.257Z,68.9
2023-01-22T08:42:06.263Z,68.9
2023-01-22T08:43:23.257Z,68.7
2023-01-22T08:44:40.319Z,68.9
2023-01-22T08:45:57.374Z,68.9
2023-01-22T08:47:14.251Z,69
2023-01-22T08:48:31.292Z,68.6
2023-01-22T08:49:48.328Z,68.4
2023-01-22T08:51:05.310Z,68.6
2023-01-22T08:52:22.290Z,68.5
2023-01-22T08:53:39.288Z,68.5
2023-01-22T08:54:56.429Z,68.7
2023-01-22T08:56:13.326Z,68.7
2023-01-22T08:57:30.311Z,68.4
2023-01-22T08:58:47.291Z,68.6
2023-01-22T09:00:04.332Z,68.6
2023-01-22T09:01:21.616Z,68.6
2023-01-22T09:02:38.311Z,69
2023-01-22T09:03:58.008Z,69
2023-01-22T09:05:15.411Z,68.7
2023-01-22T09:06:32.363Z,68.7
2023-01-22T09:07:49.367Z,68.7
2023-01-22T09:09:06.368Z,68.6
2023-01-22T09:10:23.800Z,68.4
2023-01-22T09:11:40.550Z,68.3
2023-01-22T09:12:57.508Z,68.3
2023-01-22T09:14:14.338Z,68.3
2023-01-22T09:15:31.497Z,68.4
2023-01-22T09:16:48.331Z,68.3
2023-01-22T09:18:05.489Z,68.4
2023-01-22T09:19:22.341Z,68.6
2023-01-22T09:20:39.477Z,68.7
2023-01-22T09:21:56.337Z,69.2
2023-01-22T09:23:15.482Z,70.1
2023-01-22T09:24:30.367Z,71
2023-01-22T09:25:47.536Z,72.1
2023-01-22T09:27:04.340Z,72.9
2023-01-22T09:28:21.447Z,73.7
2023-01-22T09:29:38.407Z,74.3
2023-01-22T09:30:55.473Z,74.5
2023-01-22T09:32:12.339Z,74.5
2023-01-22T09:33:29.374Z,74.1
2023-01-22T09:34:46.345Z,73.4
2023-01-22T09:36:03.355Z,73.3
2023-01-22T09:37:20.439Z,72.9
2023-01-22T09:38:37.368Z,72.4
2023-01-22T09:39:54.355Z,72.4
2023-01-22T09:41:11.498Z,72.2
2023-01-22T09:42:28.385Z,71.8
2023-01-22T09:43:45.350Z,71.6
2023-01-22T09:45:02.380Z,71.5
2023-01-22T09:46:19.410Z,71.3
2023-01-22T09:47:36.406Z,71
2023-01-22T09:48:53.346Z,71
2023-01-22T09:50:10.380Z,71.1
2023-01-22T09:51:27.442Z,70.9
2023-01-22T09:52:44.404Z,70.7
2023-01-22T09:54:01.354Z,70.6
2023-01-22T09:55:18.400Z,70.6
2023-01-22T09:56:35.478Z,70.7
2023-01-22T09:57:52.358Z,70.8
2023-01-22T09:59:09.364Z,70.9
2023-01-22T10:00:26.376Z,71
2023-01-22T10:01:43.449Z,70.8
2023-01-22T10:03:00.425Z,70.8
2023-01-22T10:04:17.382Z,70.8
2023-01-22T10:05:34.380Z,70.6
2023-01-22T10:06:51.377Z,70.6
2023-01-22T10:08:08.386Z,70.6
2023-01-22T10:09:25.394Z,70.8
2023-01-22T10:10:42.466Z,70.8
2023-01-22T10:11:59.580Z,70.8
2023-01-22T10:13:16.359Z,71
2023-01-22T10:14:33.379Z,70.8
2023-01-22T10:15:50.496Z,70.8
2023-01-22T10:17:07.416Z,70.8
2023-01-22T10:18:24.941Z,70.8
2023-01-22T10:19:42.413Z,71
2023-01-22T10:20:59.731Z,71.1
2023-01-22T10:22:16.397Z,71.1
2023-01-22T10:23:33.498Z,71
2023-01-22T10:24:50.423Z,71.6
2023-01-22T10:26:07.478Z,72.3
2023-01-22T10:27:24.625Z,73.4
2023-01-22T10:28:41.469Z,74.4
2023-01-22T10:29:58.480Z,75.1
2023-01-22T10:31:15.603Z,76.1
2023-01-22T10:32:32.410Z,76.7
2023-01-22T10:33:49.449Z,77
2023-01-22T10:35:06.495Z,77.5
2023-01-22T10:36:23.451Z,77.4
2023-01-22T10:37:40.433Z,77.8
2023-01-22T10:38:57.426Z,78
2023-01-22T10:40:14.509Z,77.6
2023-01-22T10:41:31.452Z,76.8
2023-01-22T10:42:48.625Z,76.7
2023-01-22T10:44:05.462Z,76.1
2023-01-22T10:45:22.669Z,75.7
2023-01-22T10:46:39.523Z,75.3
2023-01-22T10:47:56.427Z,75.2
2023-01-22T10:49:13.868Z,75.1
2023-01-22T10:50:31.540Z,74.9
2023-01-22T10:51:48.468Z,74.7
2023-01-22T10:53:05.531Z,74.5
2023-01-22T10:54:22.449Z,74.4
2023-01-22T10:55:39.454Z,74.4
2023-01-22T10:56:56.495Z,74.7
2023-01-22T10:58:13.613Z,75.1
2023-01-22T10:59:30.456Z,75.4
2023-01-22T11:00:52.156Z,75.3
2023-01-22T11:02:05.246Z,75.4
2023-01-22T11:03:23.223Z,75.3
2023-01-22T11:04:40.485Z,75.5
2023-01-22T11:05:57.527Z,75.6
2023-01-22T11:07:14.471Z,75.6
2023-01-22T11:08:31.540Z,75.4
2023-01-22T11:09:48.492Z,75.3
2023-01-22T11:11:05.499Z,75.4
2023-01-22T11:12:22.516Z,75.5
2023-01-22T11:13:39.751Z,75.5
2023-01-22T11:14:56.478Z,75.6
2023-01-22T11:16:13.514Z,76
2023-01-22T11:17:30.648Z,76.9
2023-01-22T11:18:47.532Z,77.6
2023-01-22T11:20:04.598Z,78
2023-01-22T11:21:21.555Z,78.3
2023-01-22T11:22:38.583Z,78.7
2023-01-22T11:23:55.523Z,78.9
2023-01-22T11:25:12.495Z,79.5
2023-01-22T11:26:29.500Z,79.9
2023-01-22T11:27:46.550Z,80
2023-01-22T11:29:03.590Z,79.8
2023-01-22T11:30:21.483Z,79.5
2023-01-22T11:31:37.721Z,79.3
2023-01-22T11:32:54.527Z,79.2
2023-01-22T11:34:11.509Z,78.9
2023-01-22T11:35:28.609Z,78.4
2023-01-22T11:36:45.573Z,78
2023-01-22T11:38:02.561Z,77.4
2023-01-22T11:39:19.564Z,77.3
2023-01-22T11:40:36.522Z,77.8
2023-01-22T11:41:53.503Z,78.2
2023-01-22T11:43:10.512Z,78.6
2023-01-22T11:44:27.670Z,78.6
2023-01-22T11:45:44.531Z,78.4
2023-01-22T11:47:01.556Z,77.6
2023-01-22T11:48:18.583Z,76.4
2023-01-22T11:49:35.569Z,75.6
2023-01-22T11:50:52.583Z,75.1
2023-01-22T11:52:09.537Z,74.7
2023-01-22T11:53:26.520Z,74.5
2023-01-22T11:54:43.583Z,74.1
2023-01-22T11:56:00.532Z,73.4
2023-01-22T11:57:17.560Z,72.8
2023-01-22T11:58:34.539Z,72.7
2023-01-22T11:59:51.987Z,72.3
2023-01-22T12:01:08.601Z,71.9
2023-01-22T12:02:25.830Z,71.5
2023-01-22T12:03:42.577Z,71.1
2023-01-22T12:04:59.587Z,70.4
2023-01-22T12:06:16.582Z,70
2023-01-22T12:07:33.544Z,69.8
2023-01-22T12:08:50.616Z,69.3
2023-01-22T12:10:07.653Z,68.7
2023-01-22T12:11:24.680Z,68.3
2023-01-22T12:12:41.652Z,68.4
2023-01-22T12:13:58.765Z,68.1
2023-01-22T12:15:15.751Z,67.6
2023-01-22T12:16:32.610Z,67.2
2023-01-22T12:17:49.611Z,66.8
2023-01-22T12:19:06.595Z,66.4
2023-01-22T12:20:23.667Z,66.5
2023-01-22T12:21:40.716Z,66.4
2023-01-22T12:22:57.595Z,66.3
2023-01-22T12:24:14.605Z,66.3
2023-01-22T12:25:31.571Z,66.5
2023-01-22T12:26:48.639Z,66.6
2023-01-22T12:28:05.615Z,66.8
2023-01-22T12:29:22.578Z,67.1
2023-01-22T12:30:39.801Z,67.3
2023-01-22T12:31:56.693Z,67.5
2023-01-22T12:33:13.578Z,67.8
2023-01-22T12:34:30.650Z,68.2
2023-01-22T12:35:47.774Z,68.2
2023-01-22T12:37:04.687Z,68.1
2023-01-22T12:38:21.594Z,68.1
2023-01-22T12:39:38.594Z,68.2
2023-01-22T12:40:55.637Z,68.7
2023-01-22T12:42:12.637Z,69.3
2023-01-22T12:43:29.646Z,70
2023-01-22T12:44:46.601Z,70.9
2023-01-22T12:46:03.779Z,71.5
2023-01-22T12:47:20.643Z,72.7
2023-01-22T12:48:37.645Z,73.1
2023-01-22T12:49:54.614Z,73.3
2023-01-22T12:51:11.680Z,73.4
2023-01-22T12:52:28.628Z,73.4
2023-01-22T12:53:45.594Z,73.6
2023-01-22T12:55:02.683Z,73.6
2023-01-22T12:56:19.683Z,73.1
2023-01-22T12:57:36.665Z,72.3
2023-01-22T12:58:53.592Z,72
2023-01-22T13:00:10.690Z,71.6
2023-01-22T13:01:27.740Z,71.1
2023-01-22T13:02:44.707Z,70.5
2023-01-22T13:04:01.705Z,69.7
2023-01-22T13:05:18.616Z,69.1
2023-01-22T13:06:35.675Z,68.8
2023-01-22T13:07:52.651Z,68.7
2023-01-22T13:09:09.692Z,68.4
2023-01-22T13:10:26.701Z,68.5
2023-01-22T13:11:43.633Z,68.8
2023-01-22T13:13:00.651Z,68.9
2023-01-22T13:14:17.750Z,69.2
2023-01-22T13:15:34.683Z,69.2
2023-01-22T13:16:51.767Z,69
2023-01-22T13:18:08.702Z,69
2023-01-22T13:19:25.633Z,68.9
2023-01-22T13:20:42.676Z,68.8
2023-01-22T13:21:59.721Z,69
2023-01-22T13:23:17.126Z,69.4
2023-01-22T13:24:33.697Z,69.6
2023-01-22T13:25:50.671Z,69.9
2023-01-22T13:27:07.635Z,70.1
2023-01-22T13:28:24.725Z,70
2023-01-22T13:29:41.675Z,69.9
2023-01-22T13:30:58.814Z,69.8
2023-01-22T13:32:15.810Z,70.2
2023-01-22T13:33:32.750Z,70.3
2023-01-22T13:34:49.744Z,70.4
2023-01-22T13:36:06.659Z,70.3
2023-01-22T13:37:23.642Z,70.3
2023-01-22T13:38:40.679Z,70.5
2023-01-22T13:39:57.775Z,70.7
2023-01-22T13:41:14.649Z,70.7
2023-01-22T13:42:31.724Z,71
2023-01-22T13:43:48.659Z,71.1
2023-01-22T13:45:05.806Z,71.2
2023-01-22T13:46:22.764Z,71.1
2023-01-22T13:47:39.888Z,71.1
2023-01-22T13:48:56.707Z,71.2
2023-01-22T13:50:13.701Z,71.1
2023-01-22T13:51:30.734Z,71.1
2023-01-22T13:52:47.769Z,71.4
2023-01-22T13:54:04.681Z,72.3
2023-01-22T13:55:21.744Z,73.2
2023-01-22T13:56:38.756Z,73.8
2023-01-22T13:57:55.800Z,74.8
2023-01-22T13:59:12.694Z,75.7
2023-01-22T14:00:29.929Z,76.4
2023-01-22T14:01:46.795Z,76.6
2023-01-22T14:03:03.833Z,76.9
2023-01-22T14:04:20.741Z,77
2023-01-22T14:05:37.772Z,77.2
2023-01-22T14:06:54.694Z,77
2023-01-22T14:08:11.776Z,76.6
2023-01-22T14:09:28.700Z,76.4
2023-01-22T14:10:45.700Z,76.4
2023-01-22T14:12:02.758Z,76.1
2023-01-22T14:13:19.746Z,75.8
2023-01-22T14:14:36.783Z,75.5
2023-01-22T14:15:53.801Z,75.2
2023-01-22T14:17:10.743Z,74.9
2023-01-22T14:18:27.875Z,74.4
2023-01-22T14:19:44.732Z,74.2
2023-01-22T14:21:01.740Z,74.2
2023-01-22T14:22:18.739Z,74.3
2023-01-22T14:23:36.130Z,74.4
2023-01-22T14:24:52.786Z,74.6
2023-01-22T14:26:09.754Z,74.8
2023-01-22T14:27:26.755Z,74.9
2023-01-22T14:28:43.755Z,75.2
2023-01-22T14:30:00.786Z,75.6
2023-01-22T14:31:17.872Z,76
2023-01-22T14:32:34.780Z,76.2
2023-01-22T14:33:51.931Z,76.2
2023-01-22T14:35:08.775Z,76.2
2023-01-22T14:36:25.721Z,76
2023-01-22T14:37:42.755Z,75.9
2023-01-22T14:38:59.791Z,75.4
2023-01-22T14:40:17.239Z,75.2
2023-01-22T14:41:33.747Z,74.9
2023-01-22T14:42:50.769Z,74.6
2023-01-22T14:44:07.791Z,74.5
2023-01-22T14:45:24.832Z,74.3
2023-01-22T14:46:41.812Z,74.4
2023-01-22T14:47:58.814Z,74.5
2023-01-22T14:49:15.944Z,74.7
2023-01-22T14:50:32.824Z,75.1
2023-01-22T14:51:50.008Z,75
2023-01-22T14:53:06.813Z,74.7
2023-01-22T14:54:23.768Z,74.7
2023-01-22T14:55:40.807Z,74.8
2023-01-22T14:56:57.803Z,75
2023-01-22T14:58:14.803Z,74.8
2023-01-22T14:59:31.813Z,75.5
2023-01-22T15:00:48.859Z,76
2023-01-22T15:02:05.822Z,76.7
2023-01-22T15:03:22.830Z,77.3
2023-01-22T15:04:45.248Z,77.7
2023-01-22T15:05:56.873Z,78.3
2023-01-22T15:07:13.859Z,78.5
2023-01-22T15:08:30.982Z,78.9
2023-01-22T15:09:47.818Z,79
2023-01-22T15:11:05.224Z,78.5
2023-01-22T15:12:21.829Z,78.3
2023-01-22T15:13:38.842Z,78.1
2023-01-22T15:14:55.774Z,77.9
2023-01-22T15:16:12.930Z,77.6
2023-01-22T15:17:29.841Z,77.4
2023-01-22T15:18:46.850Z,77.3
2023-01-22T15:20:03.871Z,77.5
2023-01-22T15:21:20.962Z,77.4
2023-01-22T15:22:37.870Z,77.3
2023-01-22T15:23:54.820Z,77.1
2023-01-22T15:25:11.853Z,77.1
2023-01-22T15:26:28.859Z,77
2023-01-22T15:27:45.782Z,77.2
2023-01-22T15:29:02.835Z,77.2
2023-01-22T15:30:20.155Z,77
2023-01-22T15:31:36.905Z,76.9
2023-01-22T15:32:53.911Z,76.9
2023-01-22T15:34:10.818Z,76.8
2023-01-22T15:35:27.838Z,76.6
2023-01-22T15:36:45.020Z,76.6
2023-01-22T15:38:01.831Z,76.4
2023-01-22T15:39:20.493Z,76.2
2023-01-22T15:40:37.814Z,76.2
2023-01-22T15:41:54.911Z,76.2
2023-01-22T15:43:11.823Z,76.2
2023-01-22T15:44:28.822Z,76.4
2023-01-22T15:45:45.882Z,76.4
2023-01-22T15:47:03.099Z,76.5
2023-01-22T15:48:20.451Z,76.4
2023-01-22T15:49:37.963Z,76.6
2023-01-22T15:50:54.850Z,76.5
2023-01-22T15:52:12.020Z,76.6
2023-01-22T15:53:28.868Z,76.6
2023-01-22T15:54:45.878Z,76.7
2023-01-22T15:56:02.848Z,76.9
2023-01-22T15:57:19.854Z,76.8
2023-01-22T15:58:37.161Z,77.1
2023-01-22T15:59:53.975Z,77.8
2023-01-22T16:01:11.010Z,78.6
2023-01-22T16:02:27.993Z,79.2
2023-01-22T16:03:44.980Z,79.7
2023-01-22T16:05:01.919Z,79.7
2023-01-22T16:06:18.870Z,79.6
2023-01-22T16:07:36.125Z,79.4
2023-01-22T16:08:52.905Z,78.9
2023-01-22T16:10:09.872Z,78.9
2023-01-22T16:11:26.894Z,78.8
2023-01-22T16:12:43.911Z,78.5
2023-01-22T16:14:00.903Z,78.3
2023-01-22T16:15:17.880Z,78
2023-01-22T16:16:35.021Z,77.7
2023-01-22T16:17:51.933Z,77.7
2023-01-22T16:19:08.975Z,77.4
2023-01-22T16:20:25.903Z,77.1
2023-01-22T16:21:43.425Z,76.8
2023-01-22T16:23:00.083Z,76.6
2023-01-22T16:24:34.126Z,76.7
2023-01-22T16:25:50.987Z,76.8
2023-01-22T16:27:07.920Z,76.7
2023-01-22T16:28:24.908Z,76.6
2023-01-22T16:29:42.938Z,76.4
2023-01-22T16:31:06.085Z,76.4
2023-01-22T16:32:22.927Z,76.1
2023-01-22T16:33:39.882Z,76
2023-01-22T16:34:56.971Z,75.9
2023-01-22T16:36:13.905Z,75.7
2023-01-22T16:37:30.938Z,75.6
2023-01-22T16:38:48.039Z,75.4
2023-01-22T16:40:05.920Z,75.3
2023-01-22T16:41:24.870Z,75.5
2023-01-22T16:42:39.904Z,75.5
2023-01-22T16:43:56.948Z,75.8
2023-01-22T16:45:13.965Z,76
2023-01-22T16:46:30.989Z,76.2
2023-01-22T16:47:48.187Z,76.8
2023-01-22T16:49:04.937Z,77.5
2023-01-22T16:50:21.931Z,78.3
2023-01-22T16:51:38.901Z,78.7
2023-01-22T16:52:55.976Z,79
2023-01-22T16:54:13.186Z,79.3
2023-01-22T16:55:30.071Z,79.7
2023-01-22T16:56:47.099Z,79.8
2023-01-22T16:58:04.236Z,79.2
2023-01-22T16:59:21.127Z,78.9
2023-01-22T17:00:38.086Z,78.3
2023-01-22T17:01:55.005Z,78
2023-01-22T17:03:12.007Z,77.5
2023-01-22T17:04:28.954Z,77.2
2023-01-22T17:05:46.015Z,76.8
2023-01-22T17:07:05.165Z,76.8
2023-01-22T17:08:20.010Z,76.8
2023-01-22T17:09:37.172Z,76.7
2023-01-22T17:10:53.963Z,76.5
2023-01-22T17:12:10.944Z,76.4
2023-01-22T17:13:28.211Z,76.2